createdAt,value
2018-08-06T00:02:09.579Z,6.25
2018-08-06T00:04:38.608Z,6.58
2018-08-06T00:07:11.149Z,5.22
2018-08-06T00:09:41.014Z,5.62
2018-08-06T00:12:13.234Z,5.67
2018-08-06T00:14:43.297Z,5.97
2018-08-06T00:17:16.752Z,5.47
2018-08-06T00:19:46.673Z,5.60
2018-08-06T00:22:22.933Z,5.75
2018-08-06T00:27:56.549Z,5.12
2018-08-06T00:30:29.326Z,6.10
2018-08-06T00:33:11.739Z,5.42
2018-08-06T00:35:50.075Z,5.37
2018-08-06T00:38:34.096Z,5.42
2018-08-06T00:41:12.108Z,5.50
2018-08-06T00:43:41.746Z,4.97
2018-08-06T00:46:12.888Z,5.60
2018-08-06T00:48:43.021Z,5.58
2018-08-06T00:51:13.076Z,5.42
2018-08-06T00:53:45.330Z,5.53
2018-08-06T00:56:21.247Z,5.20
2018-08-06T00:58:54.512Z,4.60
2018-08-06T01:01:29.605Z,5.42
2018-08-06T01:04:10.858Z,5.40
2018-08-06T01:06:45.483Z,5.20
2018-08-06T01:09:15.559Z,5.35
2018-08-06T01:11:47.757Z,5.35
2018-08-06T01:14:21.443Z,5.70
2018-08-06T01:16:53.535Z,5.47
2018-08-06T01:19:25.493Z,5.00
2018-08-06T01:21:56.776Z,5.17
2018-08-06T01:24:28.969Z,5.80
2018-08-06T01:27:03.940Z,5.20
2018-08-06T01:29:34.111Z,5.20
2018-08-06T01:32:05.232Z,5.50
2018-08-06T01:34:36.984Z,5.03
2018-08-06T01:37:06.905Z,5.30
2018-08-06T01:39:38.153Z,5.37
2018-08-06T01:42:08.176Z,5.53
2018-08-06T01:44:46.163Z,5.25
2018-08-06T01:47:26.420Z,5.45
2018-08-06T01:50:04.117Z,5.67
2018-08-06T01:52:39.482Z,5.40
2018-08-06T01:55:22.282Z,5.53
2018-08-06T01:57:53.726Z,5.25
2018-08-06T02:00:26.959Z,5.08
2018-08-06T02:03:02.497Z,5.60
2018-08-06T02:05:34.833Z,5.55
2018-08-06T02:08:10.457Z,5.30
2018-08-06T02:10:42.440Z,4.97
2018-08-06T02:13:19.114Z,5.22
2018-08-06T02:15:50.056Z,5.15
2018-08-06T02:18:21.930Z,5.12
2018-08-06T02:20:53.995Z,4.78
2018-08-06T02:23:23.623Z,5.53
2018-08-06T02:25:53.730Z,5.45
2018-08-06T02:28:24.086Z,5.10
2018-08-06T02:30:54.564Z,5.28
2018-08-06T02:33:30.006Z,5.00
2018-08-06T02:36:04.859Z,5.47
2018-08-06T02:38:34.665Z,5.28
2018-08-06T02:41:05.434Z,4.80
2018-08-06T02:43:36.673Z,5.58
2018-08-06T02:46:06.075Z,5.70
2018-08-06T02:48:35.785Z,5.35
2018-08-06T02:51:05.050Z,5.40
2018-08-06T02:53:33.466Z,4.90
2018-08-06T02:56:03.384Z,5.10
2018-08-06T02:58:33.763Z,5.35
2018-08-06T03:01:03.309Z,4.62
2018-08-06T03:03:36.092Z,4.65
2018-08-06T03:06:05.242Z,4.90
2018-08-06T03:08:34.339Z,4.87
2018-08-06T03:11:04.816Z,4.92
2018-08-06T03:13:33.746Z,5.40
2018-08-06T03:16:04.840Z,4.58
2018-08-06T03:18:33.934Z,3.92
2018-08-06T03:21:05.175Z,4.90
2018-08-06T03:23:34.881Z,4.95
2018-08-06T03:26:05.060Z,4.78
2018-08-06T03:28:34.189Z,4.67
2018-08-06T03:31:03.862Z,4.65
2018-08-06T03:33:33.674Z,4.60
2018-08-06T03:36:03.423Z,4.55
2018-08-06T03:38:33.779Z,4.33
2018-08-06T03:41:02.385Z,4.80
2018-08-06T03:43:33.336Z,4.58
2018-08-06T03:46:02.628Z,4.37
2018-08-06T03:48:31.525Z,4.60
2018-08-06T03:51:00.237Z,4.70
2018-08-06T03:53:29.507Z,4.12
2018-08-06T03:55:58.834Z,4.20
2018-08-06T03:58:28.484Z,4.60
2018-08-06T04:00:57.576Z,4.70
2018-08-06T04:03:26.607Z,4.53
2018-08-06T04:05:55.855Z,4.35
2018-08-06T04:08:25.479Z,4.40
2018-08-06T04:10:54.577Z,4.30
2018-08-06T04:13:27.520Z,4.22
2018-08-06T04:16:00.996Z,4.20
2018-08-06T04:18:36.326Z,3.60
2018-08-06T04:21:11.735Z,4.10
2018-08-06T04:24:04.481Z,4.30
2018-08-06T04:26:49.208Z,3.98
2018-08-06T04:29:31.809Z,4.08
2018-08-06T04:32:15.465Z,4.30
2018-08-06T04:37:46.451Z,4.20
2018-08-06T04:40:22.987Z,3.83
2018-08-06T04:43:02.200Z,3.65
2018-08-06T04:45:50.953Z,4.60
2018-08-06T04:48:36.509Z,4.55
2018-08-06T04:51:10.667Z,6.15
2018-08-06T04:53:50.446Z,5.20
2018-08-06T04:56:29.892Z,4.42
2018-08-06T04:59:06.814Z,4.67
2018-08-06T05:04:43.251Z,3.92
2018-08-06T05:07:23.870Z,3.80
2018-08-06T05:10:03.359Z,3.60
2018-08-06T05:12:43.925Z,4.00
2018-08-06T05:18:08.446Z,4.08
2018-08-06T05:20:46.960Z,4.15
2018-08-06T05:23:22.794Z,3.95
2018-08-06T05:25:55.275Z,4.00
2018-08-06T05:28:29.027Z,3.98
2018-08-06T05:31:03.705Z,4.10
2018-08-06T05:33:45.389Z,3.95
2018-08-06T05:36:25.599Z,4.03
2018-08-06T05:39:00.280Z,4.20
2018-08-06T05:41:35.711Z,4.28
2018-08-06T05:49:25.226Z,4.20
2018-08-06T05:55:09.511Z,3.80
2018-08-06T05:58:02.653Z,4.03
2018-08-06T06:01:23.662Z,4.40
2018-08-06T06:04:17.696Z,4.35
2018-08-06T06:07:08.363Z,4.67
2018-08-06T06:12:56.103Z,4.90
2018-08-06T06:18:53.390Z,4.97
2018-08-06T06:27:32.745Z,5.47
2018-08-06T06:33:00.263Z,4.80
2018-08-06T06:35:42.547Z,4.05
2018-08-06T06:41:18.883Z,4.78
2018-08-06T06:44:22.022Z,4.20
2018-08-06T06:47:16.415Z,4.28
2018-08-06T06:52:52.128Z,4.50
2018-08-06T06:55:49.447Z,4.50
2018-08-06T06:58:44.040Z,5.05
2018-08-06T07:01:16.974Z,4.30
2018-08-06T07:06:36.857Z,4.70
2018-08-06T07:11:58.306Z,4.40
2018-08-06T07:14:35.572Z,4.53
2018-08-06T07:17:21.200Z,4.87
2018-08-06T07:20:17.813Z,4.67
2018-08-06T07:26:08.452Z,4.70
2018-08-06T07:28:56.072Z,4.62
2018-08-06T07:31:46.063Z,4.85
2018-08-06T07:34:39.039Z,4.87
2018-08-06T07:37:46.475Z,4.62
2018-08-06T07:40:33.354Z,4.80
2018-08-06T07:43:10.123Z,5.00
2018-08-06T07:45:45.576Z,5.20
2018-08-06T07:48:27.545Z,5.67
2018-08-06T07:51:00.901Z,5.78
2018-08-06T07:53:46.544Z,5.50
2018-08-06T07:58:55.584Z,6.00
2018-08-06T08:01:28.477Z,5.70
2018-08-06T08:04:52.531Z,6.10
2018-08-06T08:07:35.497Z,6.05
2018-08-06T08:13:07.480Z,6.05
2018-08-06T08:15:42.381Z,6.45
2018-08-06T08:18:11.848Z,6.87
2018-08-06T08:20:42.005Z,6.78
2018-08-06T08:23:10.417Z,5.87
2018-08-06T08:25:42.516Z,6.35
2018-08-06T08:28:11.444Z,5.87
2018-08-06T08:30:52.083Z,5.87
2018-08-06T08:33:21.713Z,6.00
2018-08-06T08:35:50.471Z,5.70
2018-08-06T08:38:20.892Z,5.50
2018-08-06T08:40:50.688Z,5.80
2018-08-06T08:43:21.422Z,5.35
2018-08-06T08:45:53.980Z,6.03
2018-08-06T08:48:31.719Z,6.50
2018-08-06T08:51:14.791Z,5.95
2018-08-06T08:56:46.879Z,6.05
2018-08-06T08:59:29.364Z,6.22
2018-08-06T09:02:18.178Z,6.35
2018-08-06T09:04:51.732Z,5.75
2018-08-06T09:07:22.095Z,6.70
2018-08-06T09:09:52.272Z,6.42
2018-08-06T09:12:22.605Z,6.22
2018-08-06T09:14:56.282Z,6.50
2018-08-06T09:17:29.500Z,6.78
2018-08-06T09:20:06.416Z,6.53
2018-08-06T09:22:41.720Z,6.37
2018-08-06T09:25:15.209Z,6.40
2018-08-06T09:27:59.371Z,7.55
2018-08-06T09:30:31.469Z,7.00
2018-08-06T09:33:02.213Z,7.20
2018-08-06T09:35:32.125Z,7.28
2018-08-06T09:38:08.589Z,7.78
2018-08-06T09:40:42.986Z,7.33
2018-08-06T09:43:14.621Z,8.13
2018-08-06T09:45:48.544Z,7.75
2018-08-06T09:48:28.494Z,7.87
2018-08-06T09:51:02.069Z,7.97
2018-08-06T09:53:43.581Z,7.75
2018-08-06T09:59:19.747Z,8.35
2018-08-06T10:02:01.789Z,8.53
2018-08-06T10:04:46.824Z,8.30
2018-08-06T10:07:28.205Z,8.83
2018-08-06T10:10:07.471Z,9.58
2018-08-06T10:12:50.657Z,8.35
2018-08-06T10:15:28.219Z,8.98
2018-08-06T10:18:09.026Z,8.30
2018-08-06T10:20:52.548Z,8.60
2018-08-06T10:23:23.598Z,8.58
2018-08-06T10:25:58.747Z,9.33
2018-08-06T10:34:20.375Z,8.78
2018-08-06T10:36:56.156Z,8.35
2018-08-06T10:39:29.429Z,8.95
2018-08-06T10:42:07.143Z,8.60
2018-08-06T10:44:41.261Z,9.13
2018-08-06T10:47:31.440Z,10.00
2018-08-06T10:52:57.550Z,9.30
2018-08-06T10:55:32.113Z,8.68
2018-08-06T10:58:16.857Z,9.10
2018-08-06T11:01:00.135Z,9.38
2018-08-06T11:03:41.059Z,9.10
2018-08-06T11:06:27.324Z,8.75
2018-08-06T11:09:06.288Z,8.93
2018-08-06T11:11:54.914Z,9.18
2018-08-06T11:14:28.675Z,8.60
2018-08-06T11:17:01.304Z,8.85
2018-08-06T11:19:36.021Z,9.23
2018-08-06T11:22:07.810Z,9.25
2018-08-06T11:24:48.592Z,8.40
2018-08-06T11:27:25.928Z,8.95
2018-08-06T11:30:01.512Z,9.18
2018-08-06T11:32:46.406Z,9.23
2018-08-06T11:38:08.636Z,9.45
2018-08-06T11:40:46.827Z,8.85
2018-08-06T11:43:23.090Z,9.40
2018-08-06T11:45:59.088Z,9.33
2018-08-06T11:48:36.660Z,8.58
2018-08-06T11:51:11.279Z,9.28
2018-08-06T11:53:42.399Z,9.23
2018-08-06T11:56:21.916Z,8.55
2018-08-06T11:59:01.108Z,9.18
2018-08-06T12:01:47.594Z,9.35
2018-08-06T12:04:23.609Z,9.75
2018-08-06T12:07:00.391Z,8.95
2018-08-06T12:09:43.033Z,9.10
2018-08-06T12:12:23.411Z,9.08
2018-08-06T12:14:57.273Z,9.03
2018-08-06T12:17:32.297Z,8.53
2018-08-06T12:20:06.313Z,8.88
2018-08-06T12:22:37.669Z,8.78
2018-08-06T12:25:16.382Z,8.88
2018-08-06T12:27:48.443Z,9.03
2018-08-06T12:30:25.819Z,8.48
2018-08-06T12:33:12.136Z,8.83
2018-08-06T12:36:10.111Z,9.15
2018-08-06T12:39:14.848Z,9.03
2018-08-06T12:44:31.017Z,8.78
2018-08-06T12:47:12.852Z,8.98
2018-08-06T12:49:56.547Z,9.03
2018-08-06T12:52:33.126Z,8.75
2018-08-06T12:55:17.160Z,9.08
2018-08-06T12:57:53.565Z,8.48
2018-08-06T13:00:31.249Z,8.48
2018-08-06T13:03:16.940Z,9.00
2018-08-06T13:08:57.182Z,8.98
2018-08-06T13:11:30.484Z,8.85
2018-08-06T13:14:08.477Z,9.63
2018-08-06T13:16:46.097Z,8.60
2018-08-06T13:19:16.636Z,8.73
2018-08-06T13:21:48.266Z,8.58
2018-08-06T13:24:47.391Z,8.68
2018-08-06T13:27:19.567Z,8.50
2018-08-06T13:29:52.312Z,9.20
2018-08-06T13:32:25.136Z,8.60
2018-08-06T13:35:13.122Z,9.38
2018-08-06T13:37:58.242Z,8.55
2018-08-06T13:43:36.989Z,8.50
2018-08-06T13:49:14.339Z,8.50
2018-08-06T13:52:02.959Z,8.50
2018-08-06T13:54:52.822Z,8.30
2018-08-06T13:57:39.892Z,9.10
2018-08-06T14:03:10.096Z,8.78
2018-08-06T14:08:43.880Z,9.13
2018-08-06T14:11:21.330Z,8.43
2018-08-06T14:13:54.701Z,8.93
2018-08-06T14:16:50.296Z,8.53
2018-08-06T14:22:48.818Z,8.95
2018-08-06T14:26:49.964Z,8.70
2018-08-06T14:29:33.379Z,9.15
2018-08-06T14:35:23.496Z,9.00
2018-08-06T14:38:19.621Z,8.20
2018-08-06T14:41:04.590Z,8.50
2018-08-06T14:43:47.916Z,8.98
2018-08-06T14:46:36.043Z,8.83
2018-08-06T14:50:04.544Z,8.63
2018-08-06T14:52:48.087Z,8.43
2018-08-06T14:58:26.199Z,8.00
2018-08-06T15:01:07.256Z,8.28
2018-08-06T15:03:44.724Z,8.50
2018-08-06T15:06:25.134Z,8.90
2018-08-06T15:20:59.786Z,8.65
2018-08-06T15:23:42.532Z,8.55
2018-08-06T15:26:35.326Z,8.63
2018-08-06T15:32:12.738Z,8.93
2018-08-06T15:34:51.720Z,9.30
2018-08-06T15:37:30.640Z,8.68
2018-08-06T15:40:21.959Z,8.50
2018-08-06T15:43:24.490Z,8.98
2018-08-06T15:46:19.646Z,8.95
2018-08-06T15:49:04.304Z,9.05
2018-08-06T15:51:36.335Z,10.32
2018-08-06T15:56:53.946Z,9.83
2018-08-06T15:59:27.443Z,9.28
2018-08-06T16:02:06.990Z,9.50
2018-08-06T16:07:37.995Z,10.08
2018-08-06T16:13:23.825Z,9.83
2018-08-06T16:21:28.647Z,9.00
2018-08-06T16:23:59.626Z,9.18
2018-08-06T16:26:29.070Z,9.68
2018-08-06T16:28:58.138Z,8.85
2018-08-06T16:31:29.681Z,9.28
2018-08-06T16:34:01.178Z,8.45
2018-08-06T16:36:32.533Z,8.73
2018-08-06T16:39:07.758Z,8.40
2018-08-06T16:41:39.487Z,7.22
2018-08-06T16:44:12.798Z,7.28
2018-08-06T16:46:48.800Z,7.90
2018-08-06T16:49:30.907Z,7.35
2018-08-06T16:52:59.055Z,6.90
2018-08-06T16:55:41.639Z,7.35
2018-08-06T16:58:18.933Z,6.87
2018-08-06T17:00:50.662Z,6.80
2018-08-06T17:03:31.962Z,6.65
2018-08-06T17:06:06.140Z,7.00
2018-08-06T17:08:49.085Z,6.60
2018-08-06T17:11:20.902Z,5.55
2018-08-06T17:13:56.140Z,6.45
2018-08-06T17:16:33.263Z,5.53
2018-08-06T17:19:15.051Z,5.60
2018-08-06T17:24:53.404Z,5.05
2018-08-06T17:27:35.439Z,5.58
2018-08-06T17:30:23.338Z,5.08
2018-08-06T17:36:06.461Z,5.80
2018-08-06T17:41:28.023Z,7.58
2018-08-06T17:46:37.894Z,5.33
2018-08-06T17:49:08.493Z,5.90
2018-08-06T17:51:38.455Z,6.58
2018-08-06T17:54:09.042Z,5.65
2018-08-06T17:56:38.371Z,6.42
2018-08-06T17:59:08.395Z,6.50
2018-08-06T18:01:39.237Z,7.10
2018-08-06T18:04:08.634Z,6.80
2018-08-06T18:06:42.846Z,6.65
2018-08-06T18:09:12.734Z,7.00
2018-08-06T18:11:42.063Z,6.87
2018-08-06T18:14:12.810Z,6.28
2018-08-06T18:16:42.376Z,6.90
2018-08-06T18:19:11.611Z,6.10
2018-08-06T18:21:41.998Z,6.42
2018-08-06T18:24:11.484Z,6.22
2018-08-06T18:26:41.191Z,6.65
2018-08-06T18:29:10.407Z,6.45
2018-08-06T18:31:40.569Z,7.10
2018-08-06T18:34:10.612Z,7.05
2018-08-06T18:36:42.486Z,6.67
2018-08-06T18:39:13.430Z,6.70
2018-08-06T18:41:44.655Z,6.97
2018-08-06T18:44:15.430Z,7.33
2018-08-06T18:46:52.120Z,7.00
2018-08-06T18:49:22.759Z,6.92
2018-08-06T18:51:53.046Z,7.60
2018-08-06T18:54:33.281Z,8.75
2018-08-06T18:57:11.323Z,6.55
2018-08-06T19:00:16.268Z,7.33
2018-08-06T19:03:33.153Z,6.15
2018-08-06T19:11:11.054Z,7.28
2018-08-06T19:15:22.416Z,6.87
2018-08-06T19:18:01.740Z,7.37
2018-08-06T19:24:17.330Z,8.08
2018-08-06T19:27:07.856Z,6.70
2018-08-06T19:33:15.609Z,7.40
2018-08-06T19:39:16.916Z,7.00
2018-08-06T19:47:44.880Z,8.08
2018-08-06T19:52:15.954Z,7.05
2018-08-06T19:55:14.504Z,8.08
2018-08-06T20:01:44.054Z,8.10
2018-08-06T20:04:24.877Z,7.95
2018-08-06T20:09:48.818Z,7.80
2018-08-06T20:13:19.899Z,8.45
2018-08-06T20:19:17.344Z,8.35
2018-08-06T20:27:43.913Z,6.80
2018-08-06T20:30:20.159Z,7.30
2018-08-06T20:32:53.460Z,7.00
2018-08-06T20:35:47.689Z,6.72
2018-08-06T20:52:32.804Z,6.92
2018-08-06T20:58:49.479Z,6.22
2018-08-06T21:01:33.913Z,6.40
2018-08-06T21:07:06.295Z,6.53
2018-08-06T21:09:38.768Z,6.95
2018-08-06T21:12:15.428Z,6.10
2018-08-06T21:14:50.064Z,5.90
2018-08-06T21:17:28.917Z,5.72
2018-08-06T21:20:04.123Z,6.40
2018-08-06T21:22:52.773Z,6.35
2018-08-06T21:25:45.139Z,5.97
2018-08-06T21:28:42.309Z,5.80
2018-08-06T21:31:22.213Z,5.60
2018-08-06T21:34:01.211Z,5.85
2018-08-06T21:36:33.226Z,5.17
2018-08-06T21:39:09.612Z,5.28
2018-08-06T21:41:44.126Z,5.00
2018-08-06T21:44:21.297Z,5.40
2018-08-06T21:46:52.829Z,6.00
2018-08-06T21:49:26.355Z,5.25
2018-08-06T21:51:57.608Z,5.20
2018-08-06T21:54:28.276Z,5.50
2018-08-06T21:57:01.008Z,5.50
2018-08-06T21:59:31.000Z,5.37
2018-08-06T22:02:01.192Z,5.37
2018-08-06T22:04:31.647Z,5.60
2018-08-06T22:07:01.529Z,6.37
2018-08-06T22:09:31.518Z,6.17
2018-08-06T22:12:03.653Z,6.12
2018-08-06T22:14:33.994Z,6.42
2018-08-06T22:17:07.229Z,5.85
2018-08-06T22:19:38.811Z,6.40
2018-08-06T22:22:16.379Z,5.80
2018-08-06T22:24:54.496Z,6.35
2018-08-06T22:27:25.796Z,5.87
2018-08-06T22:30:01.668Z,5.90
2018-08-06T22:32:46.767Z,6.80
2018-08-06T22:35:19.893Z,6.87
2018-08-06T22:37:58.606Z,6.78
2018-08-06T22:40:38.863Z,6.05
2018-08-06T22:43:17.844Z,7.17
2018-08-06T22:45:58.712Z,6.62
2018-08-06T22:51:23.575Z,6.75
2018-08-06T22:53:55.859Z,6.42
2018-08-06T22:56:30.483Z,6.45
2018-08-06T22:59:04.394Z,6.80
2018-08-06T23:01:37.262Z,6.30
2018-08-06T23:04:15.355Z,6.60
2018-08-06T23:06:54.909Z,6.47
2018-08-06T23:09:28.717Z,6.53
2018-08-06T23:11:59.394Z,6.37
2018-08-06T23:14:33.141Z,6.37
2018-08-06T23:17:05.347Z,6.47
2018-08-06T23:19:48.753Z,6.80
2018-08-06T23:22:29.426Z,6.47
2018-08-06T23:25:10.086Z,7.05
2018-08-06T23:27:46.163Z,6.20
2018-08-06T23:30:24.549Z,6.83
2018-08-06T23:33:03.192Z,5.72
2018-08-06T23:35:36.390Z,5.58
2018-08-06T23:38:34.427Z,6.20
2018-08-06T23:41:20.420Z,6.15
2018-08-06T23:43:57.821Z,5.60
2018-08-06T23:46:30.023Z,6.10
2018-08-06T23:49:02.343Z,6.30
2018-08-06T23:51:36.660Z,6.83
2018-08-06T23:54:11.023Z,6.70
2018-08-06T23:56:42.226Z,6.85
2018-08-06T23:59:14.395Z,5.92
